sensor_id;sensor_type;location;lat;lon;timestamp;P1;durP1;ratioP1;P2;durP2;ratioP2
60088;SDS011;45961;53.574;55.878;2022-07-30T00:00:28;11.20;;;5.93;;
60088;SDS011;45961;53.574;55.878;2022-07-30T00:01:29;10.05;;;5.88;;
60088;SDS011;45961;53.574;55.878;2022-07-30T00:02:30;11.00;;;5.85;;
60088;SDS011;45961;53.574;55.878;2022-07-30T00:03:31;7.65;;;5.63;;
60088;SDS011;45961;53.574;55.878;2022-07-30T00:04:33;8.90;;;5.72;;
60088;SDS011;45961;53.574;55.878;2022-07-30T00:05:34;9.50;;;5.80;;
60088;SDS011;45961;53.574;55.878;2022-07-30T00:06:35;8.45;;;5.63;;
60088;SDS011;45961;53.574;55.878;2022-07-30T00:07:37;7.47;;;5.75;;
60088;SDS011;45961;53.574;55.878;2022-07-30T00:08:38;12.73;;;6.03;;
60088;SDS011;45961;53.574;55.878;2022-07-30T00:09:39;10.45;;;5.93;;
60088;SDS011;45961;53.574;55.878;2022-07-30T00:10:40;9.20;;;5.97;;
60088;SDS011;45961;53.574;55.878;2022-07-30T00:12:42;15.60;;;5.90;;
60088;SDS011;45961;53.574;55.878;2022-07-30T00:14:44;10.45;;;5.60;;
60088;SDS011;45961;53.574;55.878;2022-07-30T00:15:45;14.60;;;6.15;;
60088;SDS011;45961;53.574;55.878;2022-07-30T00:16:46;10.55;;;5.50;;
60088;SDS011;45961;53.574;55.878;2022-07-30T00:18:07;9.10;;;5.90;;
60088;SDS011;45961;53.574;55.878;2022-07-30T00:19:08;9.85;;;5.80;;
60088;SDS011;45961;53.574;55.878;2022-07-30T00:20:09;15.73;;;6.15;;
60088;SDS011;45961;53.574;55.878;2022-07-30T00:21:10;9.27;;;5.75;;
60088;SDS011;45961;53.574;55.878;2022-07-30T00:22:12;12.48;;;6.00;;
60088;SDS011;45961;53.574;55.878;2022-07-30T00:23:13;9.23;;;6.10;;
60088;SDS011;45961;53.574;55.878;2022-07-30T00:24:14;10.18;;;6.18;;
60088;SDS011;45961;53.574;55.878;2022-07-30T00:25:16;16.63;;;8.10;;
60088;SDS011;45961;53.574;55.878;2022-07-30T00:26:17;10.00;;;6.68;;
60088;SDS011;45961;53.574;55.878;2022-07-30T00:27:18;13.82;;;6.32;;
60088;SDS011;45961;53.574;55.878;2022-07-30T00:28:19;13.30;;;5.90;;
60088;SDS011;45961;53.574;55.878;2022-07-30T00:29:20;8.73;;;5.38;;
60088;SDS011;45961;53.574;55.878;2022-07-30T00:30:21;8.80;;;5.90;;
60088;SDS011;45961;53.574;55.878;2022-07-30T00:31:22;9.07;;;5.38;;
60088;SDS011;45961;53.574;55.878;2022-07-30T00:32:23;8.60;;;5.45;;
60088;SDS011;45961;53.574;55.878;2022-07-30T00:33:25;8.73;;;5.72;;
60088;SDS011;45961;53.574;55.878;2022-07-30T00:34:26;6.72;;;5.70;;
60088;SDS011;45961;53.574;55.878;2022-07-30T00:35:27;9.93;;;6.22;;
60088;SDS011;45961;53.574;55.878;2022-07-30T00:36:28;10.05;;;5.82;;
60088;SDS011;45961;53.574;55.878;2022-07-30T00:37:29;9.00;;;5.57;;
60088;SDS011;45961;53.574;55.878;2022-07-30T00:38:30;13.63;;;6.18;;
60088;SDS011;45961;53.574;55.878;2022-07-30T00:39:32;10.60;;;6.35;;
60088;SDS011;45961;53.574;55.878;2022-07-30T00:41:34;9.47;;;5.50;;
60088;SDS011;45961;53.574;55.878;2022-07-30T00:42:52;8.40;;;5.63;;
60088;SDS011;45961;53.574;55.878;2022-07-30T00:43:53;11.23;;;5.80;;
60088;SDS011;45961;53.574;55.878;2022-07-30T00:44:54;8.57;;;5.55;;
60088;SDS011;45961;53.574;55.878;2022-07-30T00:45:55;7.95;;;5.90;;
60088;SDS011;45961;53.574;55.878;2022-07-30T00:46:56;10.90;;;6.97;;
60088;SDS011;45961;53.574;55.878;2022-07-30T00:47:57;9.70;;;6.03;;
60088;SDS011;45961;53.574;55.878;2022-07-30T00:49:00;10.50;;;6.18;;
60088;SDS011;45961;53.574;55.878;2022-07-30T00:50:02;13.45;;;6.25;;
60088;SDS011;45961;53.574;55.878;2022-07-30T00:51:04;9.48;;;6.45;;
60088;SDS011;45961;53.574;55.878;2022-07-30T00:52:05;11.90;;;5.88;;
60088;SDS011;45961;53.574;55.878;2022-07-30T00:53:06;9.27;;;5.88;;
60088;SDS011;45961;53.574;55.878;2022-07-30T00:54:07;10.68;;;6.32;;
60088;SDS011;45961;53.574;55.878;2022-07-30T00:55:09;8.57;;;6.10;;
60088;SDS011;45961;53.574;55.878;2022-07-30T00:56:12;10.38;;;6.47;;
60088;SDS011;45961;53.574;55.878;2022-07-30T00:57:13;9.45;;;5.93;;
60088;SDS011;45961;53.574;55.878;2022-07-30T00:58:14;8.55;;;5.88;;
60088;SDS011;45961;53.574;55.878;2022-07-30T00:59:15;8.80;;;5.75;;
60088;SDS011;45961;53.574;55.878;2022-07-30T01:01:18;7.72;;;5.78;;
60088;SDS011;45961;53.574;55.878;2022-07-30T01:02:20;7.63;;;5.88;;
60088;SDS011;45961;53.574;55.878;2022-07-30T01:04:22;7.03;;;5.87;;
60088;SDS011;45961;53.574;55.878;2022-07-30T01:05:23;10.80;;;5.95;;
60088;SDS011;45961;53.574;55.878;2022-07-30T01:06:24;14.50;;;6.03;;
60088;SDS011;45961;53.574;55.878;2022-07-30T01:08:27;7.25;;;6.03;;
60088;SDS011;45961;53.574;55.878;2022-07-30T01:09:28;10.30;;;5.95;;
60088;SDS011;45961;53.574;55.878;2022-07-30T01:10:28;12.48;;;5.80;;
60088;SDS011;45961;53.574;55.878;2022-07-30T01:11:34;7.45;;;5.53;;
60088;SDS011;45961;53.574;55.878;2022-07-30T01:12:37;11.38;;;5.63;;
60088;SDS011;45961;53.574;55.878;2022-07-30T01:14:40;8.00;;;4.90;;
60088;SDS011;45961;53.574;55.878;2022-07-30T01:16:42;8.45;;;5.60;;
60088;SDS011;45961;53.574;55.878;2022-07-30T01:17:43;12.63;;;5.65;;
60088;SDS011;45961;53.574;55.878;2022-07-30T01:18:47;9.50;;;5.20;;
60088;SDS011;45961;53.574;55.878;2022-07-30T01:20:10;8.55;;;5.50;;
60088;SDS011;45961;53.574;55.878;2022-07-30T01:21:17;8.00;;;6.03;;
60088;SDS011;45961;53.574;55.878;2022-07-30T01:23:31;8.52;;;4.97;;
60088;SDS011;45961;53.574;55.878;2022-07-30T01:24:42;11.65;;;5.75;;
60088;SDS011;45961;53.574;55.878;2022-07-30T01:25:54;9.55;;;5.57;;
60088;SDS011;45961;53.574;55.878;2022-07-30T01:26:58;10.65;;;5.93;;
60088;SDS011;45961;53.574;55.878;2022-07-30T01:28:08;9.48;;;5.90;;
60088;SDS011;45961;53.574;55.878;2022-07-30T01:29:11;11.30;;;6.38;;
60088;SDS011;45961;53.574;55.878;2022-07-30T01:30:16;8.45;;;5.40;;
60088;SDS011;45961;53.574;55.878;2022-07-30T01:31:20;10.07;;;6.38;;
60088;SDS011;45961;53.574;55.878;2022-07-30T01:32:23;10.95;;;6.53;;
60088;SDS011;45961;53.574;55.878;2022-07-30T01:33:25;10.60;;;5.88;;
60088;SDS011;45961;53.574;55.878;2022-07-30T01:34:30;10.20;;;6.20;;
60088;SDS011;45961;53.574;55.878;2022-07-30T01:35:33;13.38;;;6.78;;
60088;SDS011;45961;53.574;55.878;2022-07-30T01:36:36;10.15;;;6.30;;
60088;SDS011;45961;53.574;55.878;2022-07-30T01:38:39;12.00;;;6.05;;
60088;SDS011;45961;53.574;55.878;2022-07-30T01:39:42;9.48;;;5.95;;
60088;SDS011;45961;53.574;55.878;2022-07-30T01:40:44;14.95;;;6.55;;
60088;SDS011;45961;53.574;55.878;2022-07-30T01:41:46;11.68;;;6.35;;
60088;SDS011;45961;53.574;55.878;2022-07-30T01:42:51;10.40;;;6.20;;
60088;SDS011;45961;53.574;55.878;2022-07-30T01:43:57;11.10;;;6.50;;
60088;SDS011;45961;53.574;55.878;2022-07-30T01:45:00;8.30;;;6.65;;
60088;SDS011;45961;53.574;55.878;2022-07-30T01:46:03;9.05;;;5.45;;
60088;SDS011;45961;53.574;55.878;2022-07-30T01:47:07;11.27;;;6.35;;
60088;SDS011;45961;53.574;55.878;2022-07-30T01:48:11;12.15;;;6.90;;
60088;SDS011;45961;53.574;55.878;2022-07-30T01:49:14;9.95;;;6.82;;
60088;SDS011;45961;53.574;55.878;2022-07-30T01:50:17;9.80;;;6.03;;
60088;SDS011;45961;53.574;55.878;2022-07-30T01:51:21;9.15;;;6.68;;
60088;SDS011;45961;53.574;55.878;2022-07-30T01:52:24;9.38;;;6.63;;
60088;SDS011;45961;53.574;55.878;2022-07-30T01:53:31;9.93;;;6.78;;
60088;SDS011;45961;53.574;55.878;2022-07-30T01:54:36;8.20;;;6.55;;
60088;SDS011;45961;53.574;55.878;2022-07-30T01:55:39;9.48;;;6.80;;
60088;SDS011;45961;53.574;55.878;2022-07-30T01:56:41;9.20;;;7.30;;
60088;SDS011;45961;53.574;55.878;2022-07-30T01:57:45;10.73;;;7.28;;
60088;SDS011;45961;53.574;55.878;2022-07-30T01:58:48;9.50;;;7.60;;
60088;SDS011;45961;53.574;55.878;2022-07-30T01:59:56;9.23;;;7.70;;
60088;SDS011;45961;53.574;55.878;2022-07-30T02:01:01;9.50;;;7.25;;
60088;SDS011;45961;53.574;55.878;2022-07-30T02:02:02;10.13;;;7.13;;
60088;SDS011;45961;53.574;55.878;2022-07-30T02:03:03;9.52;;;7.10;;
60088;SDS011;45961;53.574;55.878;2022-07-30T02:04:07;12.23;;;7.57;;
60088;SDS011;45961;53.574;55.878;2022-07-30T02:05:09;8.15;;;7.28;;
60088;SDS011;45961;53.574;55.878;2022-07-30T02:06:16;12.27;;;8.05;;
60088;SDS011;45961;53.574;55.878;2022-07-30T02:07:29;12.23;;;8.27;;
60088;SDS011;45961;53.574;55.878;2022-07-30T02:08:39;13.23;;;8.15;;
60088;SDS011;45961;53.574;55.878;2022-07-30T02:09:53;12.50;;;7.78;;
60088;SDS011;45961;53.574;55.878;2022-07-30T02:11:00;12.07;;;10.18;;
60088;SDS011;45961;53.574;55.878;2022-07-30T02:12:09;12.05;;;10.68;;
60088;SDS011;45961;53.574;55.878;2022-07-30T02:13:52;13.98;;;10.38;;
60088;SDS011;45961;53.574;55.878;2022-07-30T02:16:38;11.68;;;10.43;;
60088;SDS011;45961;53.574;55.878;2022-07-30T02:17:49;15.82;;;12.07;;
60088;SDS011;45961;53.574;55.878;2022-07-30T02:19:01;18.60;;;12.63;;
60088;SDS011;45961;53.574;55.878;2022-07-30T02:20:11;18.42;;;13.20;;
60088;SDS011;45961;53.574;55.878;2022-07-30T02:21:14;14.32;;;12.82;;
60088;SDS011;45961;53.574;55.878;2022-07-30T02:22:19;16.15;;;13.48;;
60088;SDS011;45961;53.574;55.878;2022-07-30T02:23:22;18.33;;;13.55;;
60088;SDS011;45961;53.574;55.878;2022-07-30T02:24:27;18.00;;;13.52;;
60088;SDS011;45961;53.574;55.878;2022-07-30T02:25:34;14.98;;;13.38;;
60088;SDS011;45961;53.574;55.878;2022-07-30T02:26:38;16.63;;;13.20;;
60088;SDS011;45961;53.574;55.878;2022-07-30T02:27:41;17.80;;;13.65;;
60088;SDS011;45961;53.574;55.878;2022-07-30T02:28:46;14.27;;;12.80;;
60088;SDS011;45961;53.574;55.878;2022-07-30T02:29:50;15.43;;;13.52;;
60088;SDS011;45961;53.574;55.878;2022-07-30T02:30:54;15.55;;;13.95;;
60088;SDS011;45961;53.574;55.878;2022-07-30T02:31:58;15.90;;;14.20;;
60088;SDS011;45961;53.574;55.878;2022-07-30T02:33:06;16.02;;;14.38;;
60088;SDS011;45961;53.574;55.878;2022-07-30T02:34:12;17.77;;;14.93;;
60088;SDS011;45961;53.574;55.878;2022-07-30T02:35:17;17.27;;;15.32;;
60088;SDS011;45961;53.574;55.878;2022-07-30T02:36:20;16.45;;;14.57;;
60088;SDS011;45961;53.574;55.878;2022-07-30T02:37:23;16.98;;;15.00;;
60088;SDS011;45961;53.574;55.878;2022-07-30T02:38:27;16.65;;;14.93;;
60088;SDS011;45961;53.574;55.878;2022-07-30T02:39:29;15.55;;;13.88;;
60088;SDS011;45961;53.574;55.878;2022-07-30T02:40:33;18.23;;;13.82;;
60088;SDS011;45961;53.574;55.878;2022-07-30T02:41:35;17.67;;;14.82;;
60088;SDS011;45961;53.574;55.878;2022-07-30T02:42:40;17.45;;;15.57;;
60088;SDS011;45961;53.574;55.878;2022-07-30T02:43:42;19.80;;;15.30;;
60088;SDS011;45961;53.574;55.878;2022-07-30T02:44:44;22.75;;;15.20;;
60088;SDS011;45961;53.574;55.878;2022-07-30T02:45:46;18.45;;;16.05;;
60088;SDS011;45961;53.574;55.878;2022-07-30T02:46:48;19.50;;;15.93;;
60088;SDS011;45961;53.574;55.878;2022-07-30T02:48:03;18.80;;;15.32;;
60088;SDS011;45961;53.574;55.878;2022-07-30T02:49:06;19.42;;;15.63;;
60088;SDS011;45961;53.574;55.878;2022-07-30T02:50:13;19.05;;;15.50;;
60088;SDS011;45961;53.574;55.878;2022-07-30T02:51:17;16.70;;;14.68;;
60088;SDS011;45961;53.574;55.878;2022-07-30T02:52:19;18.10;;;16.20;;
60088;SDS011;45961;53.574;55.878;2022-07-30T02:53:22;18.02;;;16.15;;
60088;SDS011;45961;53.574;55.878;2022-07-30T02:54:24;19.13;;;16.88;;
60088;SDS011;45961;53.574;55.878;2022-07-30T02:55:29;20.73;;;17.38;;
60088;SDS011;45961;53.574;55.878;2022-07-30T02:56:32;21.67;;;18.50;;
60088;SDS011;45961;53.574;55.878;2022-07-30T02:57:35;23.15;;;18.20;;
60088;SDS011;45961;53.574;55.878;2022-07-30T02:58:39;22.27;;;17.40;;
60088;SDS011;45961;53.574;55.878;2022-07-30T02:59:42;22.52;;;17.50;;
60088;SDS011;45961;53.574;55.878;2022-07-30T03:00:48;24.05;;;18.17;;
60088;SDS011;45961;53.574;55.878;2022-07-30T03:01:50;23.42;;;19.77;;
60088;SDS011;45961;53.574;55.878;2022-07-30T03:02:52;21.92;;;17.40;;
60088;SDS011;45961;53.574;55.878;2022-07-30T03:03:55;18.92;;;16.90;;
60088;SDS011;45961;53.574;55.878;2022-07-30T03:04:57;20.85;;;17.17;;
60088;SDS011;45961;53.574;55.878;2022-07-30T03:06:01;26.67;;;20.50;;
60088;SDS011;45961;53.574;55.878;2022-07-30T03:07:03;23.88;;;19.63;;
60088;SDS011;45961;53.574;55.878;2022-07-30T03:08:05;24.48;;;19.50;;
60088;SDS011;45961;53.574;55.878;2022-07-30T03:09:08;27.67;;;18.70;;
60088;SDS011;45961;53.574;55.878;2022-07-30T03:10:10;23.10;;;18.42;;
60088;SDS011;45961;53.574;55.878;2022-07-30T03:11:12;23.75;;;19.50;;
60088;SDS011;45961;53.574;55.878;2022-07-30T03:12:17;23.73;;;19.20;;
60088;SDS011;45961;53.574;55.878;2022-07-30T03:13:19;23.85;;;19.05;;
60088;SDS011;45961;53.574;55.878;2022-07-30T03:14:21;23.02;;;20.52;;
60088;SDS011;45961;53.574;55.878;2022-07-30T03:15:22;20.98;;;18.92;;
60088;SDS011;45961;53.574;55.878;2022-07-30T03:17:27;21.02;;;18.73;;
60088;SDS011;45961;53.574;55.878;2022-07-30T03:18:33;22.25;;;19.08;;
60088;SDS011;45961;53.574;55.878;2022-07-30T03:19:36;24.10;;;19.08;;
60088;SDS011;45961;53.574;55.878;2022-07-30T03:20:40;21.55;;;19.08;;
60088;SDS011;45961;53.574;55.878;2022-07-30T03:21:44;22.85;;;19.42;;
60088;SDS011;45961;53.574;55.878;2022-07-30T03:22:47;21.80;;;19.05;;
60088;SDS011;45961;53.574;55.878;2022-07-30T03:23:50;23.88;;;18.92;;
60088;SDS011;45961;53.574;55.878;2022-07-30T03:24:57;21.98;;;17.95;;
60088;SDS011;45961;53.574;55.878;2022-07-30T03:25:59;19.77;;;16.77;;
60088;SDS011;45961;53.574;55.878;2022-07-30T03:27:02;18.40;;;16.40;;
60088;SDS011;45961;53.574;55.878;2022-07-30T03:28:05;21.48;;;17.17;;
60088;SDS011;45961;53.574;55.878;2022-07-30T03:29:09;19.77;;;16.05;;
60088;SDS011;45961;53.574;55.878;2022-07-30T03:30:12;21.92;;;16.55;;
60088;SDS011;45961;53.574;55.878;2022-07-30T03:31:14;18.05;;;15.90;;
60088;SDS011;45961;53.574;55.878;2022-07-30T03:32:15;20.63;;;16.15;;
60088;SDS011;45961;53.574;55.878;2022-07-30T03:34:19;19.48;;;15.95;;
60088;SDS011;45961;53.574;55.878;2022-07-30T03:35:22;20.02;;;17.27;;
60088;SDS011;45961;53.574;55.878;2022-07-30T03:36:28;21.80;;;17.05;;
60088;SDS011;45961;53.574;55.878;2022-07-30T03:37:29;18.05;;;15.52;;
60088;SDS011;45961;53.574;55.878;2022-07-30T03:38:32;19.02;;;16.20;;
60088;SDS011;45961;53.574;55.878;2022-07-30T03:39:36;18.58;;;16.42;;
60088;SDS011;45961;53.574;55.878;2022-07-30T03:40:39;17.98;;;15.85;;
60088;SDS011;45961;53.574;55.878;2022-07-30T03:41:41;20.15;;;16.88;;
60088;SDS011;45961;53.574;55.878;2022-07-30T03:42:48;18.98;;;16.58;;
60088;SDS011;45961;53.574;55.878;2022-07-30T03:43:53;19.83;;;17.13;;
60088;SDS011;45961;53.574;55.878;2022-07-30T03:44:59;23.63;;;16.77;;
60088;SDS011;45961;53.574;55.878;2022-07-30T03:46:04;23.42;;;18.50;;
60088;SDS011;45961;53.574;55.878;2022-07-30T03:47:10;19.48;;;17.13;;
60088;SDS011;45961;53.574;55.878;2022-07-30T03:48:19;21.42;;;17.95;;
60088;SDS011;45961;53.574;55.878;2022-07-30T03:49:22;22.63;;;16.52;;
60088;SDS011;45961;53.574;55.878;2022-07-30T03:50:25;18.70;;;16.02;;
60088;SDS011;45961;53.574;55.878;2022-07-30T03:51:28;20.77;;;16.73;;
60088;SDS011;45961;53.574;55.878;2022-07-30T03:53:36;18.13;;;16.27;;
60088;SDS011;45961;53.574;55.878;2022-07-30T03:55:15;19.15;;;17.08;;
60088;SDS011;45961;53.574;55.878;2022-07-30T03:56:22;23.35;;;16.65;;
60088;SDS011;45961;53.574;55.878;2022-07-30T03:57:52;25.20;;;17.92;;
60088;SDS011;45961;53.574;55.878;2022-07-30T03:58:59;22.35;;;17.85;;
60088;SDS011;45961;53.574;55.878;2022-07-30T04:00:00;19.52;;;16.83;;
60088;SDS011;45961;53.574;55.878;2022-07-30T04:01:01;18.52;;;16.42;;
60088;SDS011;45961;53.574;55.878;2022-07-30T04:03:30;21.20;;;17.48;;
60088;SDS011;45961;53.574;55.878;2022-07-30T04:04:40;19.63;;;17.13;;
60088;SDS011;45961;53.574;55.878;2022-07-30T04:05:42;25.02;;;17.63;;
60088;SDS011;45961;53.574;55.878;2022-07-30T04:06:46;21.45;;;17.75;;
60088;SDS011;45961;53.574;55.878;2022-07-30T04:07:47;23.67;;;17.17;;
60088;SDS011;45961;53.574;55.878;2022-07-30T04:08:50;22.67;;;16.65;;
60088;SDS011;45961;53.574;55.878;2022-07-30T04:09:51;19.08;;;16.98;;
60088;SDS011;45961;53.574;55.878;2022-07-30T04:11:18;22.83;;;17.08;;
60088;SDS011;45961;53.574;55.878;2022-07-30T04:12:32;18.45;;;16.38;;
60088;SDS011;45961;53.574;55.878;2022-07-30T04:13:33;22.52;;;16.30;;
60088;SDS011;45961;53.574;55.878;2022-07-30T04:14:41;24.65;;;16.73;;
60088;SDS011;45961;53.574;55.878;2022-07-30T04:15:53;18.63;;;16.33;;
60088;SDS011;45961;53.574;55.878;2022-07-30T04:17:02;19.27;;;16.13;;
60088;SDS011;45961;53.574;55.878;2022-07-30T04:18:07;18.08;;;14.82;;
60088;SDS011;45961;53.574;55.878;2022-07-30T04:19:15;20.85;;;15.70;;
60088;SDS011;45961;53.574;55.878;2022-07-30T04:20:23;19.45;;;16.23;;
60088;SDS011;45961;53.574;55.878;2022-07-30T04:21:28;19.85;;;16.70;;
60088;SDS011;45961;53.574;55.878;2022-07-30T04:22:32;19.77;;;16.70;;
60088;SDS011;45961;53.574;55.878;2022-07-30T04:23:36;20.67;;;16.08;;
60088;SDS011;45961;53.574;55.878;2022-07-30T04:24:39;19.67;;;16.00;;
60088;SDS011;45961;53.574;55.878;2022-07-30T04:25:41;19.33;;;16.02;;
60088;SDS011;45961;53.574;55.878;2022-07-30T04:26:43;22.58;;;16.70;;
60088;SDS011;45961;53.574;55.878;2022-07-30T04:27:45;17.65;;;15.50;;
60088;SDS011;45961;53.574;55.878;2022-07-30T04:28:48;19.00;;;14.05;;
60088;SDS011;45961;53.574;55.878;2022-07-30T04:29:50;15.63;;;13.50;;
60088;SDS011;45961;53.574;55.878;2022-07-30T04:30:52;16.77;;;13.55;;
60088;SDS011;45961;53.574;55.878;2022-07-30T04:31:54;17.58;;;13.57;;
60088;SDS011;45961;53.574;55.878;2022-07-30T04:33:07;17.15;;;13.85;;
60088;SDS011;45961;53.574;55.878;2022-07-30T04:34:28;11.52;;;10.40;;
60088;SDS011;45961;53.574;55.878;2022-07-30T04:35:30;14.50;;;9.93;;
60088;SDS011;45961;53.574;55.878;2022-07-30T04:36:53;13.82;;;10.43;;
60088;SDS011;45961;53.574;55.878;2022-07-30T04:37:54;13.27;;;9.95;;
60088;SDS011;45961;53.574;55.878;2022-07-30T04:38:55;13.02;;;10.13;;
60088;SDS011;45961;53.574;55.878;2022-07-30T04:39:57;14.75;;;11.07;;
60088;SDS011;45961;53.574;55.878;2022-07-30T04:40:59;15.48;;;10.52;;
60088;SDS011;45961;53.574;55.878;2022-07-30T04:42:03;13.80;;;9.75;;
60088;SDS011;45961;53.574;55.878;2022-07-30T04:43:10;11.65;;;9.52;;
60088;SDS011;45961;53.574;55.878;2022-07-30T04:44:13;11.88;;;9.38;;
60088;SDS011;45961;53.574;55.878;2022-07-30T04:45:24;15.68;;;10.77;;
60088;SDS011;45961;53.574;55.878;2022-07-30T04:46:28;16.50;;;11.57;;
60088;SDS011;45961;53.574;55.878;2022-07-30T04:47:30;11.40;;;10.18;;
60088;SDS011;45961;53.574;55.878;2022-07-30T04:48:51;12.27;;;10.10;;
60088;SDS011;45961;53.574;55.878;2022-07-30T04:49:53;11.90;;;9.63;;
60088;SDS011;45961;53.574;55.878;2022-07-30T04:50:56;13.02;;;11.63;;
60088;SDS011;45961;53.574;55.878;2022-07-30T04:52:00;10.70;;;8.23;;
60088;SDS011;45961;53.574;55.878;2022-07-30T04:53:03;12.63;;;8.30;;
60088;SDS011;45961;53.574;55.878;2022-07-30T04:54:10;10.88;;;8.57;;
60088;SDS011;45961;53.574;55.878;2022-07-30T04:55:13;12.40;;;9.13;;
60088;SDS011;45961;53.574;55.878;2022-07-30T04:56:20;11.30;;;8.63;;
60088;SDS011;45961;53.574;55.878;2022-07-30T04:57:22;9.05;;;7.75;;
60088;SDS011;45961;53.574;55.878;2022-07-30T04:58:45;10.77;;;8.13;;
60088;SDS011;45961;53.574;55.878;2022-07-30T04:59:47;10.60;;;8.40;;
60088;SDS011;45961;53.574;55.878;2022-07-30T05:01:55;11.90;;;8.55;;
60088;SDS011;45961;53.574;55.878;2022-07-30T05:02:58;10.43;;;7.20;;
60088;SDS011;45961;53.574;55.878;2022-07-30T05:04:02;8.73;;;7.47;;
60088;SDS011;45961;53.574;55.878;2022-07-30T05:05:05;11.00;;;7.28;;
60088;SDS011;45961;53.574;55.878;2022-07-30T05:06:09;8.55;;;6.90;;
60088;SDS011;45961;53.574;55.878;2022-07-30T05:07:12;9.85;;;7.22;;
60088;SDS011;45961;53.574;55.878;2022-07-30T05:08:14;10.85;;;7.07;;
60088;SDS011;45961;53.574;55.878;2022-07-30T05:09:16;8.98;;;7.30;;
60088;SDS011;45961;53.574;55.878;2022-07-30T05:10:18;8.38;;;7.00;;
60088;SDS011;45961;53.574;55.878;2022-07-30T05:11:19;10.00;;;7.22;;
60088;SDS011;45961;53.574;55.878;2022-07-30T05:12:20;9.23;;;6.70;;
60088;SDS011;45961;53.574;55.878;2022-07-30T05:13:31;12.07;;;7.13;;
60088;SDS011;45961;53.574;55.878;2022-07-30T05:15:33;11.80;;;6.60;;
60088;SDS011;45961;53.574;55.878;2022-07-30T05:16:34;8.85;;;7.03;;
60088;SDS011;45961;53.574;55.878;2022-07-30T05:17:36;9.70;;;7.18;;
60088;SDS011;45961;53.574;55.878;2022-07-30T05:18:40;11.25;;;7.53;;
60088;SDS011;45961;53.574;55.878;2022-07-30T05:19:41;9.18;;;6.70;;
60088;SDS011;45961;53.574;55.878;2022-07-30T05:20:42;10.02;;;7.13;;
60088;SDS011;45961;53.574;55.878;2022-07-30T05:21:53;8.75;;;6.97;;
60088;SDS011;45961;53.574;55.878;2022-07-30T05:22:54;9.40;;;6.53;;
60088;SDS011;45961;53.574;55.878;2022-07-30T05:23:56;8.25;;;6.65;;
60088;SDS011;45961;53.574;55.878;2022-07-30T05:25:06;7.70;;;6.18;;
60088;SDS011;45961;53.574;55.878;2022-07-30T05:26:08;9.18;;;6.30;;
60088;SDS011;45961;53.574;55.878;2022-07-30T05:27:14;9.23;;;6.38;;
60088;SDS011;45961;53.574;55.878;2022-07-30T05:28:16;6.45;;;5.75;;
60088;SDS011;45961;53.574;55.878;2022-07-30T05:29:18;7.47;;;5.50;;
60088;SDS011;45961;53.574;55.878;2022-07-30T05:30:24;7.57;;;6.75;;
60088;SDS011;45961;53.574;55.878;2022-07-30T05:31:26;6.90;;;6.05;;
60088;SDS011;45961;53.574;55.878;2022-07-30T05:32:34;8.63;;;5.97;;
60088;SDS011;45961;53.574;55.878;2022-07-30T05:33:35;7.75;;;6.55;;
60088;SDS011;45961;53.574;55.878;2022-07-30T05:34:37;7.85;;;5.70;;
60088;SDS011;45961;53.574;55.878;2022-07-30T05:35:38;7.65;;;5.50;;
60088;SDS011;45961;53.574;55.878;2022-07-30T05:37:40;6.10;;;5.50;;
60088;SDS011;45961;53.574;55.878;2022-07-30T05:38:41;5.63;;;5.00;;
60088;SDS011;45961;53.574;55.878;2022-07-30T05:40:01;9.80;;;5.47;;
60088;SDS011;45961;53.574;55.878;2022-07-30T05:41:21;8.05;;;5.60;;
60088;SDS011;45961;53.574;55.878;2022-07-30T05:42:40;6.25;;;5.43;;
60088;SDS011;45961;53.574;55.878;2022-07-30T05:43:42;7.13;;;5.25;;
60088;SDS011;45961;53.574;55.878;2022-07-30T05:44:43;6.78;;;5.55;;
60088;SDS011;45961;53.574;55.878;2022-07-30T05:45:44;14.05;;;5.65;;
60088;SDS011;45961;53.574;55.878;2022-07-30T05:46:45;6.38;;;5.32;;
60088;SDS011;45961;53.574;55.878;2022-07-30T05:47:46;7.38;;;5.93;;
60088;SDS011;45961;53.574;55.878;2022-07-30T05:48:47;7.53;;;5.88;;
60088;SDS011;45961;53.574;55.878;2022-07-30T05:49:48;6.72;;;6.00;;
60088;SDS011;45961;53.574;55.878;2022-07-30T05:50:49;7.40;;;5.80;;
60088;SDS011;45961;53.574;55.878;2022-07-30T05:51:50;9.82;;;5.55;;
60088;SDS011;45961;53.574;55.878;2022-07-30T05:52:52;6.25;;;5.53;;
60088;SDS011;45961;53.574;55.878;2022-07-30T05:54:13;6.82;;;5.60;;
60088;SDS011;45961;53.574;55.878;2022-07-30T05:55:49;7.28;;;5.70;;
60088;SDS011;45961;53.574;55.878;2022-07-30T05:57:13;7.47;;;5.68;;
60088;SDS011;45961;53.574;55.878;2022-07-30T05:58:14;8.70;;;6.00;;
60088;SDS011;45961;53.574;55.878;2022-07-30T06:00:43;8.95;;;5.88;;
60088;SDS011;45961;53.574;55.878;2022-07-30T06:01:44;6.97;;;5.65;;
60088;SDS011;45961;53.574;55.878;2022-07-30T06:02:51;8.10;;;5.40;;
60088;SDS011;45961;53.574;55.878;2022-07-30T06:04:10;7.10;;;5.70;;
60088;SDS011;45961;53.574;55.878;2022-07-30T06:05:18;6.63;;;5.80;;
60088;SDS011;45961;53.574;55.878;2022-07-30T06:06:20;6.15;;;5.07;;
60088;SDS011;45961;53.574;55.878;2022-07-30T06:07:21;6.15;;;5.18;;
60088;SDS011;45961;53.574;55.878;2022-07-30T06:08:24;7.97;;;5.80;;
60088;SDS011;45961;53.574;55.878;2022-07-30T06:10:26;6.32;;;5.50;;
60088;SDS011;45961;53.574;55.878;2022-07-30T06:12:28;6.47;;;5.75;;
60088;SDS011;45961;53.574;55.878;2022-07-30T06:13:30;6.70;;;6.05;;
60088;SDS011;45961;53.574;55.878;2022-07-30T06:14:31;6.07;;;5.45;;
60088;SDS011;45961;53.574;55.878;2022-07-30T09:07:14;6.70;;;5.68;;
60088;SDS011;45961;53.574;55.878;2022-07-30T09:09:16;6.87;;;5.70;;
60088;SDS011;45961;53.574;55.878;2022-07-30T09:10:17;8.63;;;6.30;;
60088;SDS011;45961;53.574;55.878;2022-07-30T09:11:22;10.10;;;6.15;;
60088;SDS011;45961;53.574;55.878;2022-07-30T09:13:40;7.40;;;5.90;;
60088;SDS011;45961;53.574;55.878;2022-07-30T09:14:47;10.73;;;6.25;;
60088;SDS011;45961;53.574;55.878;2022-07-30T09:17:08;12.38;;;7.00;;
60088;SDS011;45961;53.574;55.878;2022-07-30T09:18:12;7.53;;;5.80;;
60088;SDS011;45961;53.574;55.878;2022-07-30T09:19:15;10.88;;;6.40;;
60088;SDS011;45961;53.574;55.878;2022-07-30T09:20:22;9.68;;;6.53;;
60088;SDS011;45961;53.574;55.878;2022-07-30T09:21:29;11.73;;;6.15;;
60088;SDS011;45961;53.574;55.878;2022-07-30T09:22:56;10.20;;;6.38;;
60088;SDS011;45961;53.574;55.878;2022-07-30T09:24:11;13.00;;;6.50;;
60088;SDS011;45961;53.574;55.878;2022-07-30T09:25:42;8.18;;;5.32;;
60088;SDS011;45961;53.574;55.878;2022-07-30T09:27:04;5.95;;;5.35;;
60088;SDS011;45961;53.574;55.878;2022-07-30T09:28:11;14.25;;;6.78;;
60088;SDS011;45961;53.574;55.878;2022-07-30T09:29:31;7.00;;;5.57;;
60088;SDS011;45961;53.574;55.878;2022-07-30T09:30:56;7.35;;;5.72;;
60088;SDS011;45961;53.574;55.878;2022-07-30T09:32:16;9.25;;;5.82;;
60088;SDS011;45961;53.574;55.878;2022-07-30T09:33:41;7.95;;;5.28;;
60088;SDS011;45961;53.574;55.878;2022-07-30T09:34:53;10.88;;;6.13;;
60088;SDS011;45961;53.574;55.878;2022-07-30T09:36:13;8.25;;;5.55;;
60088;SDS011;45961;53.574;55.878;2022-07-30T09:38:00;6.22;;;5.45;;
60088;SDS011;45961;53.574;55.878;2022-07-30T09:39:32;7.72;;;5.68;;